sensor_id;sensor_type;location;lat;lon;timestamp;temperature;humidity
6520;DHT22;3293;51.690;5.982;2022-07-05T00:03:25;16.30;99.90
6520;DHT22;3293;51.690;5.982;2022-07-05T00:08:26;16.20;99.90
6520;DHT22;3293;51.690;5.982;2022-07-05T00:13:26;16.00;99.90
6520;DHT22;3293;51.690;5.982;2022-07-05T00:18:26;15.80;99.90
6520;DHT22;3293;51.690;5.982;2022-07-05T00:23:26;15.60;99.90
6520;DHT22;3293;51.690;5.982;2022-07-05T00:28:26;15.50;99.90
6520;DHT22;3293;51.690;5.982;2022-07-05T00:33:26;15.20;99.90
6520;DHT22;3293;51.690;5.982;2022-07-05T00:38:26;15.10;99.90
6520;DHT22;3293;51.690;5.982;2022-07-05T00:43:26;15.00;99.90
6520;DHT22;3293;51.690;5.982;2022-07-05T00:48:26;14.90;99.90
6520;DHT22;3293;51.690;5.982;2022-07-05T00:53:27;14.80;99.90
6520;DHT22;3293;51.690;5.982;2022-07-05T00:58:27;14.60;99.90
6520;DHT22;3293;51.690;5.982;2022-07-05T01:03:28;14.50;99.90
6520;DHT22;3293;51.690;5.982;2022-07-05T01:08:29;14.40;99.90
6520;DHT22;3293;51.690;5.982;2022-07-05T01:13:30;14.30;99.90
6520;DHT22;3293;51.690;5.982;2022-07-05T01:18:32;14.20;99.90
6520;DHT22;3293;51.690;5.982;2022-07-05T01:23:33;14.20;99.90
6520;DHT22;3293;51.690;5.982;2022-07-05T01:28:33;14.00;99.90
6520;DHT22;3293;51.690;5.982;2022-07-05T01:33:33;14.00;99.90
6520;DHT22;3293;51.690;5.982;2022-07-05T01:38:33;13.90;99.90
6520;DHT22;3293;51.690;5.982;2022-07-05T01:43:33;13.80;99.90
6520;DHT22;3293;51.690;5.982;2022-07-05T01:48:35;13.70;99.90
6520;DHT22;3293;51.690;5.982;2022-07-05T01:53:39;13.70;99.90
6520;DHT22;3293;51.690;5.982;2022-07-05T01:58:41;13.70;99.90
6520;DHT22;3293;51.690;5.982;2022-07-05T02:03:43;13.60;99.90
6520;DHT22;3293;51.690;5.982;2022-07-05T02:08:43;13.60;99.90
6520;DHT22;3293;51.690;5.982;2022-07-05T02:13:43;13.40;99.90
6520;DHT22;3293;51.690;5.982;2022-07-05T02:18:43;13.40;99.90
6520;DHT22;3293;51.690;5.982;2022-07-05T02:23:43;13.30;99.90
6520;DHT22;3293;51.690;5.982;2022-07-05T02:28:43;13.20;99.90
6520;DHT22;3293;51.690;5.982;2022-07-05T02:33:43;13.10;99.90
6520;DHT22;3293;51.690;5.982;2022-07-05T02:38:43;13.00;99.90
6520;DHT22;3293;51.690;5.982;2022-07-05T02:43:43;12.90;99.90
6520;DHT22;3293;51.690;5.982;2022-07-05T02:48:43;12.80;99.90
6520;DHT22;3293;51.690;5.982;2022-07-05T02:53:43;12.70;99.90
6520;DHT22;3293;51.690;5.982;2022-07-05T02:58:43;12.60;99.90
6520;DHT22;3293;51.690;5.982;2022-07-05T03:03:43;12.60;99.90
6520;DHT22;3293;51.690;5.982;2022-07-05T03:08:43;12.60;99.90
6520;DHT22;3293;51.690;5.982;2022-07-05T03:13:43;12.60;99.90
6520;DHT22;3293;51.690;5.982;2022-07-05T03:18:43;12.50;99.90
6520;DHT22;3293;51.690;5.982;2022-07-05T03:23:43;12.50;99.90
6520;DHT22;3293;51.690;5.982;2022-07-05T03:28:43;12.50;99.90
6520;DHT22;3293;51.690;5.982;2022-07-05T03:33:43;12.50;99.90
6520;DHT22;3293;51.690;5.982;2022-07-05T03:38:43;12.50;99.90
6520;DHT22;3293;51.690;5.982;2022-07-05T03:43:43;12.50;99.90
6520;DHT22;3293;51.690;5.982;2022-07-05T03:48:43;12.50;99.90
6520;DHT22;3293;51.690;5.982;2022-07-05T03:53:43;12.50;99.90
6520;DHT22;3293;51.690;5.982;2022-07-05T03:58:43;12.50;99.90
6520;DHT22;3293;51.690;5.982;2022-07-05T04:03:43;12.60;99.90
6520;DHT22;3293;51.690;5.982;2022-07-05T04:08:43;12.80;99.90
6520;DHT22;3293;51.690;5.982;2022-07-05T04:13:43;13.20;99.90
6520;DHT22;3293;51.690;5.982;2022-07-05T04:18:43;13.50;99.90
6520;DHT22;3293;51.690;5.982;2022-07-05T04:23:43;13.70;99.90
6520;DHT22;3293;51.690;5.982;2022-07-05T04:28:43;13.90;99.90
6520;DHT22;3293;51.690;5.982;2022-07-05T04:33:43;14.10;99.90
6520;DHT22;3293;51.690;5.982;2022-07-05T04:38:43;14.20;99.90
6520;DHT22;3293;51.690;5.982;2022-07-05T04:43:43;14.40;99.90
6520;DHT22;3293;51.690;5.982;2022-07-05T04:48:43;14.60;99.90
6520;DHT22;3293;51.690;5.982;2022-07-05T04:53:43;14.80;99.90
6520;DHT22;3293;51.690;5.982;2022-07-05T04:58:42;15.10;99.90
6520;DHT22;3293;51.690;5.982;2022-07-05T05:03:42;15.50;99.90
6520;DHT22;3293;51.690;5.982;2022-07-05T05:08:42;15.60;99.90
6520;DHT22;3293;51.690;5.982;2022-07-05T05:13:42;15.80;99.90
6520;DHT22;3293;51.690;5.982;2022-07-05T05:18:45;16.10;99.90
6520;DHT22;3293;51.690;5.982;2022-07-05T05:23:45;17.30;99.90
6520;DHT22;3293;51.690;5.982;2022-07-05T05:28:45;17.50;99.90
6520;DHT22;3293;51.690;5.982;2022-07-05T05:33:45;18.60;99.90
6520;DHT22;3293;51.690;5.982;2022-07-05T05:38:45;18.80;99.90
6520;DHT22;3293;51.690;5.982;2022-07-05T05:43:45;18.80;99.90
6520;DHT22;3293;51.690;5.982;2022-07-05T05:48:45;18.90;99.90
6520;DHT22;3293;51.690;5.982;2022-07-05T05:53:45;18.90;99.90
6520;DHT22;3293;51.690;5.982;2022-07-05T05:58:45;18.90;99.90
6520;DHT22;3293;51.690;5.982;2022-07-05T06:03:45;18.80;99.90
6520;DHT22;3293;51.690;5.982;2022-07-05T06:08:45;18.60;99.90
6520;DHT22;3293;51.690;5.982;2022-07-05T06:13:45;18.70;99.90
6520;DHT22;3293;51.690;5.982;2022-07-05T06:18:44;18.80;99.90
6520;DHT22;3293;51.690;5.982;2022-07-05T06:23:44;18.90;99.90
6520;DHT22;3293;51.690;5.982;2022-07-05T06:28:44;19.30;99.90
6520;DHT22;3293;51.690;5.982;2022-07-05T06:33:44;19.60;99.90
6520;DHT22;3293;51.690;5.982;2022-07-05T06:38:44;19.80;99.90
6520;DHT22;3293;51.690;5.982;2022-07-05T06:43:44;20.30;99.90
6520;DHT22;3293;51.690;5.982;2022-07-05T06:48:44;20.70;99.90
6520;DHT22;3293;51.690;5.982;2022-07-05T06:53:44;21.30;99.70
6520;DHT22;3293;51.690;5.982;2022-07-05T06:58:44;21.20;98.70
6520;DHT22;3293;51.690;5.982;2022-07-05T07:03:44;21.20;99.90
6520;DHT22;3293;51.690;5.982;2022-07-05T07:08:44;21.50;99.00
6520;DHT22;3293;51.690;5.982;2022-07-05T07:14:02;21.80;98.30
6520;DHT22;3293;51.690;5.982;2022-07-05T07:19:02;21.80;96.20
6520;DHT22;3293;51.690;5.982;2022-07-05T07:24:02;23.60;91.50
6520;DHT22;3293;51.690;5.982;2022-07-05T07:29:02;25.60;68.70
6520;DHT22;3293;51.690;5.982;2022-07-05T07:34:02;26.60;58.20
6520;DHT22;3293;51.690;5.982;2022-07-05T07:39:02;26.50;54.60
6520;DHT22;3293;51.690;5.982;2022-07-05T07:44:02;27.00;56.20
6520;DHT22;3293;51.690;5.982;2022-07-05T07:49:02;28.20;47.50
6520;DHT22;3293;51.690;5.982;2022-07-05T07:54:02;29.20;42.60
6520;DHT22;3293;51.690;5.982;2022-07-05T07:59:02;29.60;41.00
6520;DHT22;3293;51.690;5.982;2022-07-05T08:04:02;29.50;40.10
6520;DHT22;3293;51.690;5.982;2022-07-05T08:09:02;29.20;42.20
6520;DHT22;3293;51.690;5.982;2022-07-05T08:14:02;28.00;45.60
6520;DHT22;3293;51.690;5.982;2022-07-05T08:19:02;27.30;48.20
6520;DHT22;3293;51.690;5.982;2022-07-05T08:24:21;26.80;49.80
6520;DHT22;3293;51.690;5.982;2022-07-05T08:29:20;27.10;48.30
6520;DHT22;3293;51.690;5.982;2022-07-05T08:34:20;26.80;53.90
6520;DHT22;3293;51.690;5.982;2022-07-05T08:39:20;26.00;58.20
6520;DHT22;3293;51.690;5.982;2022-07-05T08:44:22;24.80;67.20
6520;DHT22;3293;51.690;5.982;2022-07-05T08:49:26;25.90;59.20
6520;DHT22;3293;51.690;5.982;2022-07-05T08:54:27;27.30;49.20
6520;DHT22;3293;51.690;5.982;2022-07-05T08:59:27;27.80;50.50
6520;DHT22;3293;51.690;5.982;2022-07-05T09:04:30;28.10;48.70
6520;DHT22;3293;51.690;5.982;2022-07-05T09:09:32;27.10;50.80
6520;DHT22;3293;51.690;5.982;2022-07-05T09:14:33;28.20;49.30
6520;DHT22;3293;51.690;5.982;2022-07-05T09:19:33;29.10;44.20
6520;DHT22;3293;51.690;5.982;2022-07-05T09:24:44;30.20;39.60
6520;DHT22;3293;51.690;5.982;2022-07-05T09:29:56;30.00;37.80
6520;DHT22;3293;51.690;5.982;2022-07-05T09:35:19;29.90;38.80
6520;DHT22;3293;51.690;5.982;2022-07-05T09:40:19;28.70;41.40
6520;DHT22;3293;51.690;5.982;2022-07-05T09:45:23;27.50;41.10
6520;DHT22;3293;51.690;5.982;2022-07-05T09:50:34;27.20;37.90
6520;DHT22;3293;51.690;5.982;2022-07-05T09:55:34;26.20;44.90
6520;DHT22;3293;51.690;5.982;2022-07-05T10:00:34;25.20;50.00
6520;DHT22;3293;51.690;5.982;2022-07-05T10:05:34;24.30;56.50
6520;DHT22;3293;51.690;5.982;2022-07-05T10:10:34;23.50;54.60
6520;DHT22;3293;51.690;5.982;2022-07-05T10:15:35;23.20;60.60
6520;DHT22;3293;51.690;5.982;2022-07-05T10:20:43;23.50;61.00
6520;DHT22;3293;51.690;5.982;2022-07-05T10:25:49;24.50;54.10
6520;DHT22;3293;51.690;5.982;2022-07-05T10:30:49;25.40;47.70
6520;DHT22;3293;51.690;5.982;2022-07-05T10:35:50;25.40;41.40
6520;DHT22;3293;51.690;5.982;2022-07-05T10:40:54;24.90;44.40
6520;DHT22;3293;51.690;5.982;2022-07-05T10:45:55;24.80;49.30
6520;DHT22;3293;51.690;5.982;2022-07-05T10:50:56;25.00;48.00
6520;DHT22;3293;51.690;5.982;2022-07-05T11:06:38;25.60;49.20
6520;DHT22;3293;51.690;5.982;2022-07-05T11:11:41;26.00;50.50
6520;DHT22;3293;51.690;5.982;2022-07-05T11:16:42;26.50;47.30
6520;DHT22;3293;51.690;5.982;2022-07-05T11:22:03;26.80;45.70
6520;DHT22;3293;51.690;5.982;2022-07-05T11:27:09;26.30;47.00
6520;DHT22;3293;51.690;5.982;2022-07-05T11:37:17;25.20;49.00
6520;DHT22;3293;51.690;5.982;2022-07-05T11:42:28;25.00;50.70
6520;DHT22;3293;51.690;5.982;2022-07-05T11:47:27;25.00;54.50
6520;DHT22;3293;51.690;5.982;2022-07-05T11:52:31;24.90;55.50
6520;DHT22;3293;51.690;5.982;2022-07-05T11:57:31;24.50;56.00
6520;DHT22;3293;51.690;5.982;2022-07-05T12:02:31;23.90;59.40
6520;DHT22;3293;51.690;5.982;2022-07-05T12:07:33;23.80;58.50
6520;DHT22;3293;51.690;5.982;2022-07-05T12:12:33;23.90;59.90
6520;DHT22;3293;51.690;5.982;2022-07-05T12:17:44;23.90;59.20
6520;DHT22;3293;51.690;5.982;2022-07-05T12:22:44;24.00;56.80
6520;DHT22;3293;51.690;5.982;2022-07-05T12:27:46;24.30;58.40
6520;DHT22;3293;51.690;5.982;2022-07-05T12:38:08;24.70;57.80
6520;DHT22;3293;51.690;5.982;2022-07-05T12:43:13;24.90;48.10
6520;DHT22;3293;51.690;5.982;2022-07-05T12:48:13;24.40;50.50
6520;DHT22;3293;51.690;5.982;2022-07-05T12:53:13;23.90;52.20
6520;DHT22;3293;51.690;5.982;2022-07-05T12:58:32;23.50;53.40
6520;DHT22;3293;51.690;5.982;2022-07-05T13:04:02;23.40;55.00
6520;DHT22;3293;51.690;5.982;2022-07-05T13:09:03;23.40;55.90
6520;DHT22;3293;51.690;5.982;2022-07-05T13:14:03;23.20;56.30
6520;DHT22;3293;51.690;5.982;2022-07-05T13:19:11;23.10;56.60
6520;DHT22;3293;51.690;5.982;2022-07-05T13:24:11;23.40;60.10
6520;DHT22;3293;51.690;5.982;2022-07-05T13:29:11;24.20;54.50
6520;DHT22;3293;51.690;5.982;2022-07-05T13:34:11;24.60;50.20
6520;DHT22;3293;51.690;5.982;2022-07-05T13:39:11;24.30;52.00
6520;DHT22;3293;51.690;5.982;2022-07-05T13:44:11;24.50;54.00
6520;DHT22;3293;51.690;5.982;2022-07-05T13:49:11;24.60;53.70
6520;DHT22;3293;51.690;5.982;2022-07-05T13:54:11;24.30;52.50
6520;DHT22;3293;51.690;5.982;2022-07-05T13:59:11;24.30;52.90
6520;DHT22;3293;51.690;5.982;2022-07-05T14:04:11;24.80;53.50
6520;DHT22;3293;51.690;5.982;2022-07-05T14:09:11;24.40;48.50
6520;DHT22;3293;51.690;5.982;2022-07-05T14:14:11;24.30;50.70
6520;DHT22;3293;51.690;5.982;2022-07-05T14:19:12;24.20;51.20
6520;DHT22;3293;51.690;5.982;2022-07-05T14:24:12;24.30;50.90
6520;DHT22;3293;51.690;5.982;2022-07-05T14:29:12;23.80;52.50
6520;DHT22;3293;51.690;5.982;2022-07-05T14:34:12;23.60;54.30
6520;DHT22;3293;51.690;5.982;2022-07-05T14:39:12;23.40;55.40
6520;DHT22;3293;51.690;5.982;2022-07-05T14:44:12;23.20;53.80
6520;DHT22;3293;51.690;5.982;2022-07-05T14:49:12;23.30;53.60
6520;DHT22;3293;51.690;5.982;2022-07-05T14:54:12;23.20;55.10
6520;DHT22;3293;51.690;5.982;2022-07-05T14:59:12;23.20;52.20
6520;DHT22;3293;51.690;5.982;2022-07-05T15:04:12;23.30;52.50
6520;DHT22;3293;51.690;5.982;2022-07-05T15:09:12;23.40;50.60
6520;DHT22;3293;51.690;5.982;2022-07-05T15:14:12;23.10;50.50
6520;DHT22;3293;51.690;5.982;2022-07-05T15:19:12;22.80;49.80
6520;DHT22;3293;51.690;5.982;2022-07-05T15:24:12;22.30;50.50
6520;DHT22;3293;51.690;5.982;2022-07-05T15:29:13;22.10;54.00
6520;DHT22;3293;51.690;5.982;2022-07-05T15:34:13;22.10;53.20
6520;DHT22;3293;51.690;5.982;2022-07-05T15:39:13;22.20;50.40
6520;DHT22;3293;51.690;5.982;2022-07-05T15:44:13;22.10;50.00
6520;DHT22;3293;51.690;5.982;2022-07-05T15:49:13;22.10;50.60
6520;DHT22;3293;51.690;5.982;2022-07-05T15:54:13;22.00;51.90
6520;DHT22;3293;51.690;5.982;2022-07-05T15:59:13;22.00;51.10
6520;DHT22;3293;51.690;5.982;2022-07-05T16:04:13;22.10;51.00
6520;DHT22;3293;51.690;5.982;2022-07-05T16:09:13;22.00;50.60
6520;DHT22;3293;51.690;5.982;2022-07-05T16:14:13;21.80;51.70
6520;DHT22;3293;51.690;5.982;2022-07-05T16:19:13;21.80;53.20
6520;DHT22;3293;51.690;5.982;2022-07-05T16:24:13;21.90;52.00
6520;DHT22;3293;51.690;5.982;2022-07-05T16:29:13;22.00;50.80
6520;DHT22;3293;51.690;5.982;2022-07-05T16:34:13;21.90;53.50
6520;DHT22;3293;51.690;5.982;2022-07-05T16:39:13;21.90;54.10
6520;DHT22;3293;51.690;5.982;2022-07-05T16:44:13;22.00;51.20
6520;DHT22;3293;51.690;5.982;2022-07-05T16:49:13;22.10;50.30
6520;DHT22;3293;51.690;5.982;2022-07-05T16:54:13;22.10;51.50
6520;DHT22;3293;51.690;5.982;2022-07-05T16:59:13;22.10;49.80
6520;DHT22;3293;51.690;5.982;2022-07-05T17:04:13;22.00;50.80
6520;DHT22;3293;51.690;5.982;2022-07-05T17:09:13;21.80;52.00
6520;DHT22;3293;51.690;5.982;2022-07-05T17:14:13;21.30;54.40
6520;DHT22;3293;51.690;5.982;2022-07-05T17:19:13;21.20;52.50
6520;DHT22;3293;51.690;5.982;2022-07-05T17:24:13;21.10;54.20
6520;DHT22;3293;51.690;5.982;2022-07-05T17:29:13;21.10;53.90
6520;DHT22;3293;51.690;5.982;2022-07-05T17:34:16;21.10;52.60
6520;DHT22;3293;51.690;5.982;2022-07-05T17:39:16;21.00;52.10
6520;DHT22;3293;51.690;5.982;2022-07-05T17:44:16;20.80;53.20
6520;DHT22;3293;51.690;5.982;2022-07-05T17:49:16;21.00;53.00
6520;DHT22;3293;51.690;5.982;2022-07-05T17:54:16;21.10;50.90
6520;DHT22;3293;51.690;5.982;2022-07-05T17:59:16;20.90;52.20
6520;DHT22;3293;51.690;5.982;2022-07-05T18:04:16;20.50;54.50
6520;DHT22;3293;51.690;5.982;2022-07-05T18:09:16;20.30;55.00
6520;DHT22;3293;51.690;5.982;2022-07-05T18:14:17;20.10;55.50
6520;DHT22;3293;51.690;5.982;2022-07-05T18:19:17;20.00;56.80
6520;DHT22;3293;51.690;5.982;2022-07-05T18:24:17;19.70;60.60
6520;DHT22;3293;51.690;5.982;2022-07-05T18:29:17;19.50;64.70
6520;DHT22;3293;51.690;5.982;2022-07-05T18:34:17;19.20;76.00
6520;DHT22;3293;51.690;5.982;2022-07-05T18:39:17;19.10;80.50
6520;DHT22;3293;51.690;5.982;2022-07-05T18:44:18;19.00;83.20
6520;DHT22;3293;51.690;5.982;2022-07-05T18:49:18;18.70;84.70
6520;DHT22;3293;51.690;5.982;2022-07-05T18:54:18;18.50;85.20
6520;DHT22;3293;51.690;5.982;2022-07-05T18:59:18;18.40;88.10
6520;DHT22;3293;51.690;5.982;2022-07-05T19:04:18;18.10;88.10
6520;DHT22;3293;51.690;5.982;2022-07-05T19:09:18;18.00;90.30
6520;DHT22;3293;51.690;5.982;2022-07-05T19:14:37;17.70;91.50
6520;DHT22;3293;51.690;5.982;2022-07-05T19:19:37;17.60;92.30
6520;DHT22;3293;51.690;5.982;2022-07-05T19:24:38;17.60;92.40
6520;DHT22;3293;51.690;5.982;2022-07-05T19:29:38;17.50;92.50
6520;DHT22;3293;51.690;5.982;2022-07-05T19:34:38;17.40;92.90
6520;DHT22;3293;51.690;5.982;2022-07-05T19:39:38;17.40;92.70
6520;DHT22;3293;51.690;5.982;2022-07-05T19:44:38;17.30;93.50
6520;DHT22;3293;51.690;5.982;2022-07-05T19:49:38;17.10;93.50
6520;DHT22;3293;51.690;5.982;2022-07-05T19:54:38;17.10;93.60
6520;DHT22;3293;51.690;5.982;2022-07-05T19:59:38;17.00;92.50
6520;DHT22;3293;51.690;5.982;2022-07-05T20:04:38;16.90;92.50
6520;DHT22;3293;51.690;5.982;2022-07-05T20:09:38;16.80;93.70
6520;DHT22;3293;51.690;5.982;2022-07-05T20:14:38;16.80;94.30
6520;DHT22;3293;51.690;5.982;2022-07-05T20:19:38;16.50;94.80
6520;DHT22;3293;51.690;5.982;2022-07-05T20:24:38;16.40;91.40
6520;DHT22;3293;51.690;5.982;2022-07-05T20:29:39;16.40;88.50
6520;DHT22;3293;51.690;5.982;2022-07-05T20:34:39;16.30;87.90
6520;DHT22;3293;51.690;5.982;2022-07-05T20:39:41;16.20;88.20
6520;DHT22;3293;51.690;5.982;2022-07-05T20:44:41;16.00;89.70
6520;DHT22;3293;51.690;5.982;2022-07-05T20:49:41;15.90;88.00
6520;DHT22;3293;51.690;5.982;2022-07-05T20:54:41;15.90;87.90
6520;DHT22;3293;51.690;5.982;2022-07-05T20:59:41;15.70;90.10
6520;DHT22;3293;51.690;5.982;2022-07-05T21:04:41;15.50;91.60
6520;DHT22;3293;51.690;5.982;2022-07-05T21:09:41;15.40;92.40
6520;DHT22;3293;51.690;5.982;2022-07-05T21:14:42;15.20;94.60
6520;DHT22;3293;51.690;5.982;2022-07-05T21:19:45;15.20;94.30
6520;DHT22;3293;51.690;5.982;2022-07-05T21:24:48;15.30;93.40
6520;DHT22;3293;51.690;5.982;2022-07-05T21:29:50;15.30;93.90
6520;DHT22;3293;51.690;5.982;2022-07-05T21:34:50;15.30;93.70
6520;DHT22;3293;51.690;5.982;2022-07-05T21:39:50;15.30;94.10
6520;DHT22;3293;51.690;5.982;2022-07-05T21:44:50;15.10;95.10
6520;DHT22;3293;51.690;5.982;2022-07-05T21:49:50;14.80;96.60
6520;DHT22;3293;51.690;5.982;2022-07-05T21:54:50;14.70;97.80
6520;DHT22;3293;51.690;5.982;2022-07-05T21:59:50;14.50;98.50
6520;DHT22;3293;51.690;5.982;2022-07-05T22:05:09;14.40;99.90
6520;DHT22;3293;51.690;5.982;2022-07-05T22:10:09;14.20;99.90
6520;DHT22;3293;51.690;5.982;2022-07-05T22:15:09;14.10;99.90
6520;DHT22;3293;51.690;5.982;2022-07-05T22:20:09;13.90;99.90
6520;DHT22;3293;51.690;5.982;2022-07-05T22:25:09;13.80;99.90
6520;DHT22;3293;51.690;5.982;2022-07-05T22:30:10;13.70;99.90
6520;DHT22;3293;51.690;5.982;2022-07-05T22:35:10;13.60;99.90
6520;DHT22;3293;51.690;5.982;2022-07-05T22:40:10;13.50;99.90
6520;DHT22;3293;51.690;5.982;2022-07-05T22:45:10;13.50;99.90
6520;DHT22;3293;51.690;5.982;2022-07-05T22:50:10;13.30;99.90
6520;DHT22;3293;51.690;5.982;2022-07-05T22:55:10;13.30;99.90
6520;DHT22;3293;51.690;5.982;2022-07-05T23:00:12;13.20;99.90
6520;DHT22;3293;51.690;5.982;2022-07-05T23:05:12;13.10;99.90
6520;DHT22;3293;51.690;5.982;2022-07-05T23:10:12;13.10;99.90
6520;DHT22;3293;51.690;5.982;2022-07-05T23:15:12;13.10;99.90
6520;DHT22;3293;51.690;5.982;2022-07-05T23:20:12;13.10;99.90
6520;DHT22;3293;51.690;5.982;2022-07-05T23:25:12;13.00;99.90
6520;DHT22;3293;51.690;5.982;2022-07-05T23:30:12;12.90;99.90
6520;DHT22;3293;51.690;5.982;2022-07-05T23:35:12;12.90;99.90
6520;DHT22;3293;51.690;5.982;2022-07-05T23:40:12;12.80;99.90
6520;DHT22;3293;51.690;5.982;2022-07-05T23:45:12;12.80;99.90
6520;DHT22;3293;51.690;5.982;2022-07-05T23:50:12;12.70;99.90
6520;DHT22;3293;51.690;5.982;2022-07-05T23:55:12;12.70;99.90
